createdAt,value
2022-12-23T00:00:40.708Z,2.57
2022-12-23T00:03:07.688Z,2.58
2022-12-23T00:05:39.956Z,2.62
2022-12-23T00:08:07.579Z,2.61
2022-12-23T00:10:37.915Z,2.64
2022-12-23T00:13:23.397Z,2.63
2022-12-23T00:15:50.172Z,2.64
2022-12-23T00:18:16.926Z,2.58
2022-12-23T00:20:43.649Z,2.53
2022-12-23T00:23:10.527Z,2.52
2022-12-23T00:25:42.467Z,2.53
2022-12-23T00:28:16.114Z,2.56
2022-12-23T00:30:54.948Z,2.58
2022-12-23T00:33:24.189Z,2.58
2022-12-23T00:35:52.084Z,2.59
2022-12-23T00:38:39.869Z,2.60
2022-12-23T00:41:29.265Z,2.62
2022-12-23T00:43:56.637Z,2.61
2022-12-23T00:46:24.972Z,2.63
2022-12-23T00:49:10.538Z,2.67
2022-12-23T00:51:37.450Z,2.61
2022-12-23T00:54:04.877Z,2.66
2022-12-23T00:56:32.433Z,2.66
2022-12-23T00:58:59.991Z,2.65
2022-12-23T01:01:46.406Z,2.65
2022-12-23T01:04:33.349Z,2.66
2022-12-23T01:07:00.242Z,2.66
2022-12-23T01:09:27.515Z,2.69
2022-12-23T01:11:54.548Z,2.70
2022-12-23T01:14:21.829Z,2.73
2022-12-23T01:16:48.811Z,2.74
2022-12-23T01:19:15.466Z,2.76
2022-12-23T01:21:42.347Z,2.75
2022-12-23T01:24:09.257Z,2.75
2022-12-23T01:26:36.122Z,2.76
2022-12-23T01:29:03.520Z,2.76
2022-12-23T01:31:30.315Z,2.77
2022-12-23T01:33:57.105Z,2.78
2022-12-23T01:36:24.071Z,2.78
2022-12-23T01:38:51.668Z,2.77
2022-12-23T01:41:46.805Z,2.73
2022-12-23T01:44:53.885Z,2.73
2022-12-23T01:47:20.524Z,2.70
2022-12-23T01:49:49.416Z,2.66
2022-12-23T01:52:16.599Z,2.64
2022-12-23T01:54:44.129Z,2.58
2022-12-23T01:57:11.259Z,2.58
2022-12-23T01:59:56.878Z,2.59
2022-12-23T02:02:42.542Z,2.60
2022-12-23T02:05:09.633Z,2.62
2022-12-23T02:07:55.444Z,2.65
2022-12-23T02:10:26.620Z,2.65
2022-12-23T02:13:14.037Z,2.63
2022-12-23T02:16:10.334Z,2.61
2022-12-23T02:19:01.582Z,2.59
2022-12-23T02:22:12.832Z,2.59
2022-12-23T02:25:03.417Z,2.60
2022-12-23T02:27:47.214Z,2.56
2022-12-23T02:30:57.070Z,2.53
2022-12-23T02:33:40.218Z,2.50
2022-12-23T02:36:07.062Z,2.51
2022-12-23T02:38:54.276Z,2.53
2022-12-23T02:41:30.470Z,2.52
2022-12-23T02:44:02.750Z,2.51
2022-12-23T02:46:37.045Z,2.50
2022-12-23T02:49:08.177Z,2.48
2022-12-23T02:51:40.529Z,2.44
2022-12-23T02:54:12.349Z,2.42
2022-12-23T02:56:46.225Z,2.42
2022-12-23T02:59:21.401Z,2.42
2022-12-23T03:01:49.703Z,2.42
2022-12-23T03:04:16.468Z,2.44
2022-12-23T03:06:50.040Z,2.41
2022-12-23T03:09:51.811Z,2.40
2022-12-23T03:12:35.072Z,2.40
2022-12-23T03:15:19.560Z,2.40
2022-12-23T03:18:04.323Z,2.41
2022-12-23T03:21:03.500Z,2.36
2022-12-23T03:23:32.912Z,2.30
2022-12-23T03:26:14.582Z,2.25
2022-12-23T03:28:45.278Z,2.22
2022-12-23T03:31:18.460Z,2.21
2022-12-23T03:33:48.746Z,2.23
2022-12-23T03:36:38.573Z,2.26
2022-12-23T03:39:09.937Z,2.26
2022-12-23T03:41:42.477Z,2.29
2022-12-23T03:44:13.988Z,2.30
2022-12-23T03:46:47.479Z,2.32
2022-12-23T03:49:20.593Z,2.30
2022-12-23T03:51:59.363Z,2.33
2022-12-23T03:54:32.105Z,2.34
2022-12-23T03:57:03.544Z,2.32
2022-12-23T03:59:44.116Z,2.30
2022-12-23T04:02:40.869Z,2.32
2022-12-23T04:05:37.929Z,2.29
2022-12-23T04:08:10.627Z,2.25
2022-12-23T04:10:37.747Z,2.22
2022-12-23T04:13:04.882Z,2.21
2022-12-23T04:15:31.960Z,2.23
2022-12-23T04:17:58.736Z,2.20
2022-12-23T04:20:26.132Z,2.18
2022-12-23T04:22:52.847Z,2.16
2022-12-23T04:25:19.471Z,2.14
2022-12-23T04:27:46.348Z,2.10
2022-12-23T04:30:16.539Z,2.06
2022-12-23T04:32:43.434Z,2.00
2022-12-23T04:35:11.720Z,2.01
2022-12-23T04:37:38.911Z,1.98
2022-12-23T04:40:06.898Z,1.93
2022-12-23T04:42:34.033Z,1.87
2022-12-23T04:45:00.728Z,1.84
2022-12-23T04:47:27.733Z,1.78
2022-12-23T04:49:54.468Z,1.73
2022-12-23T04:52:21.232Z,1.70
2022-12-23T04:54:47.924Z,1.67
2022-12-23T04:57:15.960Z,1.61
2022-12-23T04:59:42.620Z,1.57
2022-12-23T05:02:09.579Z,1.56
2022-12-23T05:04:36.466Z,1.53
2022-12-23T05:07:03.301Z,1.53
2022-12-23T05:09:29.889Z,1.50
2022-12-23T05:11:56.777Z,1.47
2022-12-23T05:14:23.391Z,1.43
2022-12-23T05:16:50.087Z,1.41
2022-12-23T05:19:17.209Z,1.39
2022-12-23T05:21:43.905Z,1.36
2022-12-23T05:24:10.722Z,1.31
2022-12-23T05:26:37.575Z,1.25
2022-12-23T05:29:04.700Z,1.23
2022-12-23T05:31:31.354Z,1.22
2022-12-23T05:34:05.734Z,1.22
2022-12-23T05:36:33.590Z,1.22
2022-12-23T05:39:00.370Z,1.23
2022-12-23T05:41:27.207Z,1.21
2022-12-23T05:43:53.884Z,1.20
2022-12-23T05:46:26.134Z,1.18
2022-12-23T05:48:53.487Z,1.14
2022-12-23T05:51:20.121Z,1.08
2022-12-23T05:53:46.901Z,1.08
2022-12-23T05:56:13.623Z,1.09
2022-12-23T05:58:40.243Z,1.12
2022-12-23T06:01:07.922Z,1.14
2022-12-23T06:03:34.893Z,1.17
2022-12-23T06:06:01.786Z,1.18
2022-12-23T06:08:28.775Z,1.21
2022-12-23T06:10:55.542Z,1.25
2022-12-23T06:13:22.112Z,1.26
2022-12-23T06:15:49.172Z,1.19
2022-12-23T06:18:15.807Z,1.17
2022-12-23T06:20:46.703Z,1.13
2022-12-23T06:23:13.857Z,1.13
2022-12-23T06:25:40.516Z,1.12
2022-12-23T06:28:08.103Z,1.15
2022-12-23T06:30:35.336Z,1.14
2022-12-23T06:33:01.962Z,1.14
2022-12-23T06:35:28.754Z,1.12
2022-12-23T06:37:55.607Z,1.08
2022-12-23T06:40:22.421Z,1.05
2022-12-23T06:42:48.999Z,1.06
2022-12-23T06:45:16.136Z,1.07
2022-12-23T06:47:42.746Z,1.10
2022-12-23T06:50:09.726Z,1.10
2022-12-23T06:52:36.837Z,1.10
2022-12-23T06:55:03.591Z,1.14
2022-12-23T06:57:30.151Z,1.15
2022-12-23T06:59:57.276Z,1.14
2022-12-23T07:02:23.988Z,1.19
2022-12-23T07:04:50.647Z,1.22
2022-12-23T07:07:17.536Z,1.23
2022-12-23T07:09:44.417Z,1.28
2022-12-23T07:12:11.029Z,1.33
2022-12-23T07:14:38.061Z,1.34
2022-12-23T07:17:04.762Z,1.36
2022-12-23T07:19:31.359Z,1.37
2022-12-23T07:21:58.516Z,1.40
2022-12-23T07:24:25.247Z,1.44
2022-12-23T07:26:52.368Z,1.48
2022-12-23T07:29:19.235Z,1.49
2022-12-23T07:31:46.092Z,1.52
2022-12-23T07:34:12.711Z,1.54
2022-12-23T07:36:40.027Z,1.55
2022-12-23T07:39:06.789Z,1.60
2022-12-23T07:41:38.448Z,1.65
2022-12-23T07:44:05.396Z,1.67
2022-12-23T07:46:32.073Z,1.65
2022-12-23T07:48:58.756Z,1.65
2022-12-23T07:51:25.737Z,1.69
2022-12-23T07:53:52.494Z,1.72
2022-12-23T07:56:19.341Z,1.75
2022-12-23T07:58:50.807Z,1.75
2022-12-23T08:01:18.646Z,1.72
2022-12-23T08:03:45.766Z,1.76
2022-12-23T08:06:14.087Z,1.79
2022-12-23T08:08:43.231Z,1.84
2022-12-23T08:11:11.839Z,1.90
2022-12-23T08:13:40.986Z,1.99
2022-12-23T08:16:08.717Z,2.05
2022-12-23T08:18:38.052Z,2.06
2022-12-23T08:21:11.079Z,2.10
2022-12-23T08:23:37.743Z,2.11
2022-12-23T08:26:13.703Z,2.13
2022-12-23T08:28:41.660Z,2.15
2022-12-23T08:31:15.827Z,2.16
2022-12-23T08:33:45.037Z,2.19
2022-12-23T08:36:22.502Z,2.24
2022-12-23T08:38:56.105Z,2.30
2022-12-23T08:41:26.029Z,2.34
2022-12-23T08:43:53.715Z,2.39
2022-12-23T08:46:20.639Z,2.43
2022-12-23T08:48:49.634Z,2.47
2022-12-23T08:51:18.215Z,2.56
2022-12-23T08:53:45.250Z,2.65
2022-12-23T08:56:15.903Z,2.72
2022-12-23T08:58:48.231Z,2.74
2022-12-23T09:01:17.308Z,2.75
2022-12-23T09:03:45.070Z,2.74
2022-12-23T09:06:26.555Z,2.75
2022-12-23T09:08:55.908Z,2.76
2022-12-23T09:11:25.357Z,2.78
2022-12-23T09:13:52.033Z,2.83
2022-12-23T09:16:19.124Z,2.90
2022-12-23T09:18:46.064Z,2.95
2022-12-23T09:21:15.804Z,3.12
2022-12-23T09:23:43.183Z,3.23
2022-12-23T09:26:11.183Z,3.30
2022-12-23T09:28:39.780Z,3.36
2022-12-23T09:31:11.965Z,3.41
2022-12-23T09:33:39.432Z,3.42
2022-12-23T09:36:06.841Z,3.45
2022-12-23T09:38:34.307Z,3.47
2022-12-23T09:41:21.267Z,3.49
2022-12-23T09:44:19.075Z,3.51
2022-12-23T09:46:51.625Z,3.52
2022-12-23T09:49:19.297Z,3.51
2022-12-23T09:51:48.545Z,3.55
2022-12-23T09:54:23.680Z,3.56
2022-12-23T09:57:00.545Z,3.58
2022-12-23T09:59:53.715Z,3.68
2022-12-23T10:02:45.246Z,3.72
2022-12-23T10:05:21.909Z,3.76
2022-12-23T10:07:55.994Z,3.82
2022-12-23T10:10:43.371Z,3.86
2022-12-23T10:13:30.528Z,3.90
2022-12-23T10:16:05.664Z,3.93
2022-12-23T10:18:56.376Z,3.98
2022-12-23T10:21:46.919Z,3.99
2022-12-23T10:24:24.219Z,4.04
2022-12-23T10:26:54.181Z,4.10
2022-12-23T10:29:23.972Z,4.14
2022-12-23T10:31:57.963Z,4.18
2022-12-23T10:34:47.398Z,4.21
2022-12-23T10:37:20.923Z,4.23
2022-12-23T10:39:47.612Z,4.25
2022-12-23T10:42:28.926Z,4.24
2022-12-23T10:45:28.859Z,4.30
2022-12-23T10:48:17.041Z,4.32
2022-12-23T10:50:49.736Z,4.35
2022-12-23T10:53:41.411Z,4.39
2022-12-23T10:56:08.665Z,4.43
2022-12-23T10:58:40.968Z,4.46
2022-12-23T11:01:16.172Z,4.49
2022-12-23T11:04:15.422Z,4.53
2022-12-23T11:06:46.496Z,4.54
2022-12-23T11:10:02.460Z,4.59
2022-12-23T11:12:44.354Z,4.62
2022-12-23T11:15:38.750Z,4.67
2022-12-23T11:18:07.433Z,4.70
2022-12-23T11:20:36.187Z,4.70
2022-12-23T11:23:04.560Z,4.72
2022-12-23T11:25:41.271Z,4.76
2022-12-23T11:28:12.247Z,4.80
2022-12-23T11:30:56.753Z,4.84
2022-12-23T11:33:30.299Z,4.88
2022-12-23T11:36:20.079Z,4.95
2022-12-23T11:38:52.592Z,4.99
2022-12-23T11:41:26.286Z,5.02
2022-12-23T11:44:10.152Z,5.08
2022-12-23T11:46:37.780Z,5.09
2022-12-23T11:49:12.849Z,5.15
2022-12-23T11:51:39.929Z,5.20
2022-12-23T11:54:06.577Z,5.27
2022-12-23T11:56:42.012Z,5.28
2022-12-23T11:59:27.108Z,5.29
2022-12-23T12:01:56.948Z,5.31
2022-12-23T12:04:25.749Z,5.32
2022-12-23T12:06:56.693Z,5.32
2022-12-23T12:09:25.641Z,5.36
2022-12-23T12:11:58.354Z,5.37
2022-12-23T12:14:34.220Z,5.41
2022-12-23T12:17:05.811Z,5.43
2022-12-23T12:19:40.742Z,5.44
2022-12-23T12:22:14.760Z,5.50
2022-12-23T12:24:56.334Z,5.56
2022-12-23T12:27:34.608Z,5.67
2022-12-23T12:30:08.867Z,5.72
2022-12-23T12:32:47.484Z,5.75
2022-12-23T12:35:23.341Z,5.75
2022-12-23T12:37:59.485Z,5.80
2022-12-23T12:40:35.495Z,5.81
2022-12-23T12:43:16.247Z,5.83
2022-12-23T12:46:16.540Z,5.86
2022-12-23T12:49:11.312Z,5.85
2022-12-23T12:51:41.783Z,5.77
2022-12-23T12:54:17.907Z,5.68
2022-12-23T12:56:48.200Z,5.61
2022-12-23T12:59:20.472Z,5.54
2022-12-23T13:02:01.010Z,5.53
2022-12-23T13:04:39.607Z,5.48
2022-12-23T13:07:15.943Z,5.52
2022-12-23T13:09:51.443Z,5.55
2022-12-23T13:12:52.713Z,5.59
2022-12-23T13:15:30.352Z,5.63
2022-12-23T13:18:03.415Z,5.64
2022-12-23T13:20:42.859Z,5.65
2022-12-23T13:23:44.438Z,5.68
2022-12-23T13:26:25.563Z,5.74
2022-12-23T13:29:17.715Z,5.78
2022-12-23T13:32:06.033Z,5.77
2022-12-23T13:34:52.341Z,5.75
2022-12-23T13:37:44.045Z,5.74
2022-12-23T13:40:29.725Z,5.73
2022-12-23T13:43:04.489Z,5.73
2022-12-23T13:45:38.790Z,5.71
2022-12-23T13:48:38.735Z,5.68
2022-12-23T13:51:13.639Z,5.64
2022-12-23T13:53:47.727Z,5.56
2022-12-23T13:56:24.178Z,5.61
2022-12-23T13:58:51.849Z,5.63
2022-12-23T14:01:18.654Z,5.64
2022-12-23T14:03:48.827Z,5.66
2022-12-23T14:06:24.884Z,5.68
2022-12-23T14:08:54.912Z,5.72
2022-12-23T14:11:24.391Z,5.79
2022-12-23T14:13:51.004Z,5.81
2022-12-23T14:17:00.833Z,5.85
2022-12-23T14:19:52.948Z,5.85
2022-12-23T14:22:37.705Z,5.85
2022-12-23T14:25:38.712Z,5.86
2022-12-23T14:28:08.596Z,5.84
2022-12-23T14:30:42.845Z,5.81
2022-12-23T14:33:18.723Z,5.78
2022-12-23T14:35:45.507Z,5.73
2022-12-23T14:38:14.804Z,5.67
2022-12-23T14:41:19.214Z,5.63
2022-12-23T14:43:45.775Z,5.57
2022-12-23T14:46:35.445Z,5.55
2022-12-23T14:49:37.024Z,5.53
2022-12-23T14:51:53.164Z,5.50
2022-12-23T14:54:31.486Z,5.53
2022-12-23T14:57:08.155Z,5.56
2022-12-23T14:59:58.146Z,5.59
2022-12-23T15:02:33.886Z,5.55
2022-12-23T15:05:01.556Z,5.55
2022-12-23T15:07:35.875Z,5.56
2022-12-23T15:10:06.221Z,5.57
2022-12-23T15:12:37.893Z,5.60
2022-12-23T15:15:07.484Z,5.62
2022-12-23T15:17:36.629Z,5.60
2022-12-23T15:20:15.604Z,5.60
2022-12-23T15:22:44.884Z,5.60
2022-12-23T15:25:25.667Z,5.61
2022-12-23T15:28:01.309Z,5.59
2022-12-23T15:30:31.291Z,5.58
2022-12-23T15:33:16.011Z,5.57
2022-12-23T15:35:52.356Z,5.60
2022-12-23T15:38:21.602Z,5.58
2022-12-23T15:41:03.732Z,5.54
2022-12-23T15:43:31.419Z,5.54
2022-12-23T15:46:32.879Z,5.55
2022-12-23T15:49:00.511Z,5.55
2022-12-23T15:52:05.711Z,5.52
2022-12-23T15:55:04.194Z,5.52
2022-12-23T15:57:31.624Z,5.50
2022-12-23T15:59:59.358Z,5.50
2022-12-23T16:02:59.269Z,5.49
2022-12-23T16:05:31.044Z,5.50
2022-12-23T16:08:11.941Z,5.51
2022-12-23T16:10:40.742Z,5.46
2022-12-23T16:13:20.157Z,5.38
2022-12-23T16:15:47.461Z,5.24
2022-12-23T16:18:22.041Z,5.18
2022-12-23T16:20:51.568Z,5.12
2022-12-23T16:23:18.578Z,5.06
2022-12-23T16:25:51.150Z,5.06
2022-12-23T16:28:32.476Z,5.02
2022-12-23T16:30:59.224Z,4.95
2022-12-23T16:33:50.693Z,4.96
2022-12-23T16:36:26.206Z,4.95
2022-12-23T16:39:34.282Z,4.94
2022-12-23T16:42:00.902Z,4.93
2022-12-23T16:44:27.727Z,4.95
2022-12-23T16:46:54.574Z,4.97
2022-12-23T16:49:27.969Z,4.96
2022-12-23T16:51:56.678Z,4.95
2022-12-23T16:54:23.506Z,4.92
2022-12-23T16:56:50.258Z,4.90
2022-12-23T16:59:17.646Z,4.89
2022-12-23T17:01:49.082Z,4.88
2022-12-23T17:04:15.993Z,4.84
2022-12-23T17:06:43.376Z,4.78
2022-12-23T17:09:10.691Z,4.77
2022-12-23T17:11:41.711Z,4.74
2022-12-23T17:14:16.101Z,4.73
2022-12-23T17:16:43.275Z,4.73
2022-12-23T17:19:10.050Z,4.72
2022-12-23T17:21:38.067Z,4.73
2022-12-23T17:24:09.449Z,4.72
2022-12-23T17:26:36.274Z,4.70
2022-12-23T17:29:05.005Z,4.68
2022-12-23T17:31:33.604Z,4.65
2022-12-23T17:34:00.983Z,4.60
2022-12-23T17:36:28.247Z,4.54
2022-12-23T17:38:55.221Z,4.48
2022-12-23T17:41:31.197Z,4.41
2022-12-23T17:43:58.419Z,4.32
2022-12-23T17:46:25.858Z,4.25
2022-12-23T17:48:53.800Z,4.18
2022-12-23T17:51:22.750Z,4.09
2022-12-23T17:53:57.066Z,4.00
2022-12-23T17:56:26.963Z,3.94
2022-12-23T17:58:53.880Z,3.89
2022-12-23T18:01:29.953Z,3.84
2022-12-23T18:03:58.247Z,3.80
2022-12-23T18:06:27.683Z,3.78
2022-12-23T18:08:54.666Z,3.75
2022-12-23T18:11:41.975Z,3.77
2022-12-23T18:14:17.029Z,3.74
2022-12-23T18:16:43.815Z,3.69
2022-12-23T18:19:18.988Z,3.66
2022-12-23T18:21:46.388Z,3.58
2022-12-23T18:24:13.182Z,3.56
2022-12-23T18:26:40.264Z,3.57
2022-12-23T18:29:06.921Z,3.54
2022-12-23T18:31:33.657Z,3.49
2022-12-23T18:34:00.524Z,3.49
2022-12-23T18:36:31.218Z,3.46
2022-12-23T18:38:58.025Z,3.44
2022-12-23T18:41:25.782Z,3.45
2022-12-23T18:43:53.397Z,3.43
2022-12-23T18:46:20.425Z,3.48
2022-12-23T18:48:47.641Z,3.51
2022-12-23T18:51:18.881Z,3.51
2022-12-23T18:53:47.294Z,3.50
2022-12-23T18:56:15.553Z,3.49
2022-12-23T18:58:43.160Z,3.46
2022-12-23T19:01:17.797Z,3.45
2022-12-23T19:03:44.851Z,3.43
2022-12-23T19:06:14.264Z,3.39
2022-12-23T19:08:42.162Z,3.39
2022-12-23T19:11:14.229Z,3.39
2022-12-23T19:13:41.072Z,3.35
2022-12-23T19:16:08.381Z,3.35
2022-12-23T19:18:35.077Z,3.33
2022-12-23T19:21:04.482Z,3.29
2022-12-23T19:23:31.373Z,3.27
2022-12-23T19:25:57.995Z,3.25
2022-12-23T19:28:24.781Z,3.24
2022-12-23T19:30:51.800Z,3.20
2022-12-23T19:33:18.653Z,3.21
2022-12-23T19:35:45.356Z,3.17
2022-12-23T19:38:12.705Z,3.15
2022-12-23T19:40:39.796Z,3.13
2022-12-23T19:43:06.644Z,3.12
2022-12-23T19:45:33.838Z,3.05
2022-12-23T19:48:00.485Z,3.13
2022-12-23T19:50:27.298Z,3.12
2022-12-23T19:52:56.579Z,3.11
2022-12-23T19:55:23.364Z,3.13
2022-12-23T19:57:50.075Z,3.15
2022-12-23T20:00:17.033Z,3.14
2022-12-23T20:02:43.889Z,3.14
2022-12-23T20:05:10.553Z,3.13
2022-12-23T20:07:38.497Z,3.12
2022-12-23T20:10:06.258Z,3.13
2022-12-23T20:12:33.113Z,3.13
2022-12-23T20:15:00.257Z,3.11
2022-12-23T20:17:27.026Z,3.17
2022-12-23T20:19:53.720Z,3.17
2022-12-23T20:22:20.478Z,3.20
2022-12-23T20:24:47.117Z,3.18
2022-12-23T20:27:15.956Z,3.14
2022-12-23T20:29:43.149Z,3.12
2022-12-23T20:32:10.342Z,3.12
2022-12-23T20:34:40.034Z,3.08
2022-12-23T20:37:07.825Z,3.06
2022-12-23T20:39:35.474Z,3.08
2022-12-23T20:42:03.638Z,3.11
2022-12-23T20:44:35.583Z,3.13
2022-12-23T20:47:06.778Z,3.18
2022-12-23T20:49:33.894Z,3.19
2022-12-23T20:52:00.763Z,3.22
2022-12-23T20:54:32.544Z,3.28
2022-12-23T20:57:00.556Z,3.31
2022-12-23T20:59:27.177Z,3.34
2022-12-23T21:01:53.991Z,3.36
2022-12-23T21:04:21.074Z,3.43
2022-12-23T21:06:47.695Z,3.46
2022-12-23T21:09:15.473Z,3.49
2022-12-23T21:11:44.656Z,3.52
2022-12-23T21:14:11.882Z,3.55
2022-12-23T21:16:39.578Z,3.57
2022-12-23T21:19:08.672Z,3.61
2022-12-23T21:21:35.610Z,3.63
2022-12-23T21:24:04.783Z,3.65
2022-12-23T21:26:33.190Z,3.63
2022-12-23T21:29:02.034Z,3.65
2022-12-23T21:31:30.943Z,3.68
2022-12-23T21:33:58.971Z,3.66
2022-12-23T21:36:29.416Z,3.72
2022-12-23T21:38:56.820Z,3.74
2022-12-23T21:41:29.900Z,3.70
2022-12-23T21:43:57.929Z,3.75
2022-12-23T21:46:25.887Z,3.77
2022-12-23T21:48:53.356Z,3.77
2022-12-23T21:51:39.048Z,3.80
2022-12-23T21:54:07.039Z,3.78
2022-12-23T21:56:33.935Z,3.77
2022-12-23T21:59:03.719Z,3.82
2022-12-23T22:01:31.384Z,3.81
2022-12-23T22:03:58.614Z,3.80
2022-12-23T22:06:28.282Z,3.80
2022-12-23T22:08:56.025Z,3.80
2022-12-23T22:11:26.363Z,3.83
2022-12-23T22:13:53.327Z,3.87
2022-12-23T22:16:22.624Z,3.91
2022-12-23T22:18:51.187Z,3.92
2022-12-23T22:21:23.879Z,3.93
2022-12-23T22:23:52.731Z,3.94
2022-12-23T22:26:25.152Z,3.99
2022-12-23T22:28:54.829Z,4.03
2022-12-23T22:31:38.561Z,4.03
2022-12-23T22:34:06.669Z,4.06
2022-12-23T22:36:33.968Z,4.07
2022-12-23T22:39:01.897Z,4.08
2022-12-23T22:41:30.000Z,4.09
2022-12-23T22:43:58.271Z,4.11
2022-12-23T22:46:26.414Z,4.09
2022-12-23T22:48:54.382Z,4.11
2022-12-23T22:51:23.830Z,4.14
2022-12-23T22:53:50.528Z,4.15
2022-12-23T22:56:18.541Z,4.17
2022-12-23T22:58:45.495Z,4.21
2022-12-23T23:01:21.714Z,4.22
2022-12-23T23:03:51.224Z,4.24
2022-12-23T23:06:18.697Z,4.25
2022-12-23T23:08:45.642Z,4.27
2022-12-23T23:11:12.326Z,4.31
2022-12-23T23:13:39.044Z,4.36
2022-12-23T23:16:06.419Z,4.36
2022-12-23T23:18:33.700Z,4.38
2022-12-23T23:21:00.839Z,4.41
2022-12-23T23:23:27.713Z,4.40
2022-12-23T23:25:54.278Z,4.44
2022-12-23T23:28:21.053Z,4.42
2022-12-23T23:30:48.151Z,4.41
2022-12-23T23:33:14.849Z,4.42
2022-12-23T23:35:41.506Z,4.41
2022-12-23T23:38:09.230Z,4.41
2022-12-23T23:40:38.972Z,4.39
2022-12-23T23:43:05.657Z,4.35
2022-12-23T23:45:32.624Z,4.28
2022-12-23T23:47:59.296Z,4.28
2022-12-23T23:50:25.909Z,4.27
2022-12-23T23:52:52.873Z,4.27
2022-12-23T23:55:19.690Z,4.30
2022-12-23T23:57:46.357Z,4.27
